Adventure of The Seas — C6SA3 — position and weather

sailwx.info

Track history (hours):
 
Tides and Currents Weather Stations Pressure Air Temp Water Temp Dewpoint Dewpoint Depression Visibility Wind Speed Wind Dir Waves Ship Positions

Adventure of The Seas

Operator: Royal Caribbean Cruises Ltd

Last reported at 2017-Jun-25 23:28 UTC. Time now 2017-Jun-26 11:54 UTC.
Position N 17°44' W 063°07'.

Type: Passenger vessel. MMSI: 311263000.

Date/timePositionNaut miles runAvg speedWind from/ knotsBaromVisibWave heightAir tempDewpointWater temp
2017-Jun-25 23:28N 17°44' W 063°07'4 8.4
2017-Jun-25 22:59N 17°48' W 063°07'4 8.7
2017-Jun-25 22:30N 17°53' W 063°06'5 9.2
2017-Jun-25 21:58N 17°57' W 063°06'4 8.0
2017-Jun-25 21:29N 18°00' W 063°04'1 0.1
2017-Jun-25 11:25N 18°00' W 063°03'512.4
2017-Jun-25 10:59N 18°01' W 063°08'714.8
2017-Jun-25 10:30N 18°01' W 063°16'714.7
2017-Jun-25 10:00N 18°02' W 063°24'816.6
2017-Jun-25 09:30N 18°03' W 063°32'917.9
2017-Jun-25 09:00N 18°04' W 063°42'6218.1
2017-Jun-25 05:35N 18°12' W 064°46'118.4
2017-Jun-25 05:31N 18°12' W 064°48'7 0.3
2017-Jun-24 03:52N 18°12' W 064°56'616.9
2017-Jun-24 03:30N 18°09' W 064°50'6916.4
2017-Jun-23 23:18N 18°04' W 063°37'516.2
2017-Jun-23 23:00N 18°03' W 063°32'816.5
2017-Jun-23 22:30N 18°02' W 063°24'816.6
2017-Jun-23 22:00N 18°01' W 063°15'816.5
2017-Jun-23 21:29N 18°00' W 063°06'3 0.3
2017-Jun-23 11:33N 18°00' W 063°03'0 4.6
2017-Jun-23 11:29N 18°00' W 063°03'4 8.9
2017-Jun-23 10:59N 17°59' W 063°08'713.7
2017-Jun-23 10:30N 17°57' W 063°14'815.7
2017-Jun-23 09:59N 17°54' W 063°22'  
2017-Jun-17 09:00N 18°28' W 066°08'7014.1
2017-Jun-17 04:01N 18°13' W 064°56'015.7
2017-Jun-17 04:00N 18°13' W 064°55'815.7
2017-Jun-17 03:30N 18°12' W 064°47'6319.5
2017-Jun-17 00:15N 17°57' W 063°42'520.0
2017-Jun-17 00:00N 17°56' W 063°37'1020.0
2017-Jun-16 23:30N 17°54' W 063°27'1019.9
2017-Jun-16 23:00N 17°50' W 063°17'1019.8
2017-Jun-16 22:30N 17°46' W 063°08'  
Track history (hours):
 
Tides and Currents Weather Stations Pressure Air Temp Water Temp Dewpoint Dewpoint Depression Visibility Wind Speed Wind Dir Waves Ship Positions

Adventure of The Seas

Operator: Royal Caribbean Cruises Ltd

Last reported at 2017-Jun-25 23:28 UTC. Time now 2017-Jun-26 11:54 UTC.
Position N 17°44' W 063°07'.

Type: Passenger vessel. MMSI: 311263000.

Date/timePositionNaut miles runAvg speedWind from/ knotsBaromVisibWave heightAir tempDewpointWater temp
2017-Jun-25 23:28N 17°44' W 063°07'4 8.4
2017-Jun-25 22:59N 17°48' W 063°07'4 8.7
2017-Jun-25 22:30N 17°53' W 063°06'5 9.2
2017-Jun-25 21:58N 17°57' W 063°06'4 8.0
2017-Jun-25 21:29N 18°00' W 063°04'1 0.1
2017-Jun-25 11:25N 18°00' W 063°03'512.4
2017-Jun-25 10:59N 18°01' W 063°08'714.8
2017-Jun-25 10:30N 18°01' W 063°16'714.7
2017-Jun-25 10:00N 18°02' W 063°24'816.6
2017-Jun-25 09:30N 18°03' W 063°32'917.9
2017-Jun-25 09:00N 18°04' W 063°42'6218.1
2017-Jun-25 05:35N 18°12' W 064°46'118.4
2017-Jun-25 05:31N 18°12' W 064°48'7 0.3
2017-Jun-24 03:52N 18°12' W 064°56'616.9
2017-Jun-24 03:30N 18°09' W 064°50'6916.4
2017-Jun-23 23:18N 18°04' W 063°37'516.2
2017-Jun-23 23:00N 18°03' W 063°32'816.5
2017-Jun-23 22:30N 18°02' W 063°24'816.6
2017-Jun-23 22:00N 18°01' W 063°15'816.5
2017-Jun-23 21:29N 18°00' W 063°06'3 0.3
2017-Jun-23 11:33N 18°00' W 063°03'0 4.6
2017-Jun-23 11:29N 18°00' W 063°03'4 8.9
2017-Jun-23 10:59N 17°59' W 063°08'713.7
2017-Jun-23 10:30N 17°57' W 063°14'815.7
2017-Jun-23 09:59N 17°54' W 063°22'  
2017-Jun-17 09:00N 18°28' W 066°08'7014.1
2017-Jun-17 04:01N 18°13' W 064°56'015.7
2017-Jun-17 04:00N 18°13' W 064°55'815.7
2017-Jun-17 03:30N 18°12' W 064°47'6319.5
2017-Jun-17 00:15N 17°57' W 063°42'520.0
2017-Jun-17 00:00N 17°56' W 063°37'1020.0
2017-Jun-16 23:30N 17°54' W 063°27'1019.9
2017-Jun-16 23:00N 17°50' W 063°17'1019.8
2017-Jun-16 22:30N 17°46' W 063°08'  

Dump ship's entire track history